sensor_id;sensor_type;location;lat;lon;timestamp;P1;durP1;ratioP1;P2;durP2;ratioP2
64225;SDS011;50545;56.064;26.178;2022-07-10T00:02:07;3.40;;;2.00;;
64225;SDS011;50545;56.064;26.178;2022-07-10T00:04:35;2.95;;;2.00;;
64225;SDS011;50545;56.064;26.178;2022-07-10T00:07:02;3.63;;;1.90;;
64225;SDS011;50545;56.064;26.178;2022-07-10T00:09:30;4.18;;;2.10;;
64225;SDS011;50545;56.064;26.178;2022-07-10T00:11:57;5.32;;;2.08;;
64225;SDS011;50545;56.064;26.178;2022-07-10T00:14:25;4.30;;;2.10;;
64225;SDS011;50545;56.064;26.178;2022-07-10T00:16:52;5.78;;;2.30;;
64225;SDS011;50545;56.064;26.178;2022-07-10T00:19:19;6.85;;;2.20;;
64225;SDS011;50545;56.064;26.178;2022-07-10T00:21:47;3.97;;;1.95;;
64225;SDS011;50545;56.064;26.178;2022-07-10T00:24:14;3.05;;;2.00;;
64225;SDS011;50545;56.064;26.178;2022-07-10T00:26:41;4.38;;;2.05;;
64225;SDS011;50545;56.064;26.178;2022-07-10T00:29:08;6.53;;;2.10;;
64225;SDS011;50545;56.064;26.178;2022-07-10T00:31:36;6.43;;;2.60;;
64225;SDS011;50545;56.064;26.178;2022-07-10T00:34:03;5.13;;;2.10;;
64225;SDS011;50545;56.064;26.178;2022-07-10T00:36:30;4.10;;;1.95;;
64225;SDS011;50545;56.064;26.178;2022-07-10T00:38:58;4.07;;;2.00;;
64225;SDS011;50545;56.064;26.178;2022-07-10T00:41:25;3.47;;;1.90;;
64225;SDS011;50545;56.064;26.178;2022-07-10T00:46:24;3.30;;;2.05;;
64225;SDS011;50545;56.064;26.178;2022-07-10T00:48:53;2.88;;;1.90;;
64225;SDS011;50545;56.064;26.178;2022-07-10T00:51:22;3.53;;;1.98;;
64225;SDS011;50545;56.064;26.178;2022-07-10T00:53:52;3.95;;;2.08;;
64225;SDS011;50545;56.064;26.178;2022-07-10T00:56:21;4.38;;;2.53;;
64225;SDS011;50545;56.064;26.178;2022-07-10T00:58:52;3.65;;;2.10;;
64225;SDS011;50545;56.064;26.178;2022-07-10T01:01:20;4.45;;;2.15;;
64225;SDS011;50545;56.064;26.178;2022-07-10T01:03:51;3.33;;;1.92;;
64225;SDS011;50545;56.064;26.178;2022-07-10T01:06:18;5.85;;;2.15;;
64225;SDS011;50545;56.064;26.178;2022-07-10T01:08:45;4.47;;;1.90;;
64225;SDS011;50545;56.064;26.178;2022-07-10T01:11:14;3.45;;;2.13;;
64225;SDS011;50545;56.064;26.178;2022-07-10T01:13:44;4.50;;;2.20;;
64225;SDS011;50545;56.064;26.178;2022-07-10T01:16:12;4.97;;;2.05;;
64225;SDS011;50545;56.064;26.178;2022-07-10T01:18:40;5.18;;;1.85;;
64225;SDS011;50545;56.064;26.178;2022-07-10T01:21:24;4.70;;;2.30;;
64225;SDS011;50545;56.064;26.178;2022-07-10T01:23:55;7.47;;;2.67;;
64225;SDS011;50545;56.064;26.178;2022-07-10T01:26:23;4.53;;;2.10;;
64225;SDS011;50545;56.064;26.178;2022-07-10T01:28:52;3.47;;;1.95;;
64225;SDS011;50545;56.064;26.178;2022-07-10T01:31:20;3.80;;;2.33;;
64225;SDS011;50545;56.064;26.178;2022-07-10T01:33:53;3.05;;;1.90;;
64225;SDS011;50545;56.064;26.178;2022-07-10T01:36:21;5.82;;;2.25;;
64225;SDS011;50545;56.064;26.178;2022-07-10T01:38:53;2.95;;;1.98;;
64225;SDS011;50545;56.064;26.178;2022-07-10T01:41:21;4.38;;;2.20;;
64225;SDS011;50545;56.064;26.178;2022-07-10T01:43:49;5.32;;;2.22;;
64225;SDS011;50545;56.064;26.178;2022-07-10T01:46:17;3.03;;;2.03;;
64225;SDS011;50545;56.064;26.178;2022-07-10T01:48:45;3.28;;;2.08;;
64225;SDS011;50545;56.064;26.178;2022-07-10T01:51:12;4.53;;;2.20;;
64225;SDS011;50545;56.064;26.178;2022-07-10T01:53:40;3.65;;;1.90;;
64225;SDS011;50545;56.064;26.178;2022-07-10T01:56:09;4.60;;;2.10;;
64225;SDS011;50545;56.064;26.178;2022-07-10T01:58:39;2.97;;;1.95;;
64225;SDS011;50545;56.064;26.178;2022-07-10T02:01:08;4.03;;;2.00;;
64225;SDS011;50545;56.064;26.178;2022-07-10T02:03:36;4.45;;;2.17;;
64225;SDS011;50545;56.064;26.178;2022-07-10T02:06:22;4.82;;;2.10;;
64225;SDS011;50545;56.064;26.178;2022-07-10T02:08:50;3.30;;;2.03;;
64225;SDS011;50545;56.064;26.178;2022-07-10T02:11:17;2.92;;;2.03;;
64225;SDS011;50545;56.064;26.178;2022-07-10T02:13:44;3.00;;;2.30;;
64225;SDS011;50545;56.064;26.178;2022-07-10T02:16:12;4.05;;;2.20;;
64225;SDS011;50545;56.064;26.178;2022-07-10T02:18:40;5.47;;;2.17;;
64225;SDS011;50545;56.064;26.178;2022-07-10T02:21:08;5.32;;;2.13;;
64225;SDS011;50545;56.064;26.178;2022-07-10T02:23:36;3.80;;;2.10;;
64225;SDS011;50545;56.064;26.178;2022-07-10T02:26:05;3.03;;;1.97;;
64225;SDS011;50545;56.064;26.178;2022-07-10T02:28:33;7.13;;;2.00;;
64225;SDS011;50545;56.064;26.178;2022-07-10T02:31:01;4.32;;;2.15;;
64225;SDS011;50545;56.064;26.178;2022-07-10T02:33:28;6.63;;;2.20;;
64225;SDS011;50545;56.064;26.178;2022-07-10T02:35:55;4.68;;;2.13;;
64225;SDS011;50545;56.064;26.178;2022-07-10T02:38:22;3.97;;;2.10;;
64225;SDS011;50545;56.064;26.178;2022-07-10T02:40:50;4.85;;;2.10;;
64225;SDS011;50545;56.064;26.178;2022-07-10T02:43:17;7.07;;;2.30;;
64225;SDS011;50545;56.064;26.178;2022-07-10T02:45:44;3.90;;;1.95;;
64225;SDS011;50545;56.064;26.178;2022-07-10T02:48:14;5.07;;;2.15;;
64225;SDS011;50545;56.064;26.178;2022-07-10T02:50:42;4.13;;;2.20;;
64225;SDS011;50545;56.064;26.178;2022-07-10T02:53:09;2.83;;;1.83;;
64225;SDS011;50545;56.064;26.178;2022-07-10T02:55:36;2.95;;;2.10;;
64225;SDS011;50545;56.064;26.178;2022-07-10T02:58:04;4.70;;;2.03;;
64225;SDS011;50545;56.064;26.178;2022-07-10T03:00:31;4.18;;;1.98;;
64225;SDS011;50545;56.064;26.178;2022-07-10T03:02:58;3.47;;;2.10;;
64225;SDS011;50545;56.064;26.178;2022-07-10T03:05:26;4.40;;;2.03;;
64225;SDS011;50545;56.064;26.178;2022-07-10T03:07:53;3.78;;;2.28;;
64225;SDS011;50545;56.064;26.178;2022-07-10T03:10:21;5.13;;;2.20;;
64225;SDS011;50545;56.064;26.178;2022-07-10T03:12:48;7.20;;;2.60;;
64225;SDS011;50545;56.064;26.178;2022-07-10T03:15:15;5.82;;;2.40;;
64225;SDS011;50545;56.064;26.178;2022-07-10T03:17:43;5.60;;;2.13;;
64225;SDS011;50545;56.064;26.178;2022-07-10T03:20:11;3.65;;;2.10;;
64225;SDS011;50545;56.064;26.178;2022-07-10T03:22:38;3.42;;;1.92;;
64225;SDS011;50545;56.064;26.178;2022-07-10T03:25:05;4.35;;;2.10;;
64225;SDS011;50545;56.064;26.178;2022-07-10T03:27:33;4.38;;;2.00;;
64225;SDS011;50545;56.064;26.178;2022-07-10T03:30:01;5.45;;;2.17;;
64225;SDS011;50545;56.064;26.178;2022-07-10T03:32:29;3.85;;;2.00;;
64225;SDS011;50545;56.064;26.178;2022-07-10T03:34:56;4.68;;;2.10;;
64225;SDS011;50545;56.064;26.178;2022-07-10T03:37:24;6.88;;;2.35;;
64225;SDS011;50545;56.064;26.178;2022-07-10T03:39:51;2.92;;;1.98;;
64225;SDS011;50545;56.064;26.178;2022-07-10T03:42:18;4.35;;;2.15;;
64225;SDS011;50545;56.064;26.178;2022-07-10T03:44:46;5.35;;;2.17;;
64225;SDS011;50545;56.064;26.178;2022-07-10T03:47:13;3.90;;;2.22;;
64225;SDS011;50545;56.064;26.178;2022-07-10T03:49:40;4.28;;;2.08;;
64225;SDS011;50545;56.064;26.178;2022-07-10T03:52:08;4.50;;;2.10;;
64225;SDS011;50545;56.064;26.178;2022-07-10T03:54:36;5.47;;;2.00;;
64225;SDS011;50545;56.064;26.178;2022-07-10T03:57:03;4.05;;;2.30;;
64225;SDS011;50545;56.064;26.178;2022-07-10T03:59:49;4.07;;;2.00;;
64225;SDS011;50545;56.064;26.178;2022-07-10T04:02:17;3.88;;;2.03;;
64225;SDS011;50545;56.064;26.178;2022-07-10T04:04:44;3.95;;;2.20;;
64225;SDS011;50545;56.064;26.178;2022-07-10T04:07:12;4.10;;;2.30;;
64225;SDS011;50545;56.064;26.178;2022-07-10T04:09:39;4.40;;;2.08;;
64225;SDS011;50545;56.064;26.178;2022-07-10T04:12:06;6.32;;;2.92;;
64225;SDS011;50545;56.064;26.178;2022-07-10T04:14:34;3.85;;;2.10;;
64225;SDS011;50545;56.064;26.178;2022-07-10T04:17:01;3.65;;;2.20;;
64225;SDS011;50545;56.064;26.178;2022-07-10T04:19:29;4.82;;;2.28;;
64225;SDS011;50545;56.064;26.178;2022-07-10T04:21:56;2.90;;;2.10;;
64225;SDS011;50545;56.064;26.178;2022-07-10T04:24:23;8.27;;;2.08;;
64225;SDS011;50545;56.064;26.178;2022-07-10T04:26:51;4.22;;;2.30;;
64225;SDS011;50545;56.064;26.178;2022-07-10T04:29:18;3.72;;;2.08;;
64225;SDS011;50545;56.064;26.178;2022-07-10T04:31:45;4.53;;;2.20;;
64225;SDS011;50545;56.064;26.178;2022-07-10T04:34:13;4.57;;;2.20;;
64225;SDS011;50545;56.064;26.178;2022-07-10T04:36:40;3.70;;;2.10;;
64225;SDS011;50545;56.064;26.178;2022-07-10T04:39:07;3.45;;;2.05;;
64225;SDS011;50545;56.064;26.178;2022-07-10T04:41:35;4.28;;;2.00;;
64225;SDS011;50545;56.064;26.178;2022-07-10T04:44:02;5.20;;;2.10;;
64225;SDS011;50545;56.064;26.178;2022-07-10T04:46:30;5.28;;;2.20;;
64225;SDS011;50545;56.064;26.178;2022-07-10T04:48:57;3.08;;;2.03;;
64225;SDS011;50545;56.064;26.178;2022-07-10T04:51:24;4.20;;;2.17;;
64225;SDS011;50545;56.064;26.178;2022-07-10T04:53:52;4.00;;;2.10;;
64225;SDS011;50545;56.064;26.178;2022-07-10T04:56:19;4.32;;;2.13;;
64225;SDS011;50545;56.064;26.178;2022-07-10T04:58:47;5.45;;;2.40;;
64225;SDS011;50545;56.064;26.178;2022-07-10T05:01:18;5.57;;;2.30;;
64225;SDS011;50545;56.064;26.178;2022-07-10T05:03:47;5.78;;;2.22;;
64225;SDS011;50545;56.064;26.178;2022-07-10T05:06:14;5.35;;;2.45;;
64225;SDS011;50545;56.064;26.178;2022-07-10T05:08:42;5.30;;;2.17;;
64225;SDS011;50545;56.064;26.178;2022-07-10T05:11:10;4.55;;;2.20;;
64225;SDS011;50545;56.064;26.178;2022-07-10T05:13:37;4.10;;;2.28;;
64225;SDS011;50545;56.064;26.178;2022-07-10T05:16:05;4.45;;;1.95;;
64225;SDS011;50545;56.064;26.178;2022-07-10T05:18:32;4.53;;;2.17;;
64225;SDS011;50545;56.064;26.178;2022-07-10T05:21:00;3.60;;;2.20;;
64225;SDS011;50545;56.064;26.178;2022-07-10T05:23:27;4.60;;;2.17;;
64225;SDS011;50545;56.064;26.178;2022-07-10T05:25:54;3.70;;;2.20;;
64225;SDS011;50545;56.064;26.178;2022-07-10T05:28:21;5.70;;;2.50;;
64225;SDS011;50545;56.064;26.178;2022-07-10T05:30:49;6.43;;;2.25;;
64225;SDS011;50545;56.064;26.178;2022-07-10T05:33:16;4.80;;;2.28;;
64225;SDS011;50545;56.064;26.178;2022-07-10T05:35:44;4.95;;;2.10;;
64225;SDS011;50545;56.064;26.178;2022-07-10T05:38:12;6.55;;;2.40;;
64225;SDS011;50545;56.064;26.178;2022-07-10T05:40:40;4.88;;;2.40;;
64225;SDS011;50545;56.064;26.178;2022-07-10T05:43:07;4.40;;;2.20;;
64225;SDS011;50545;56.064;26.178;2022-07-10T05:45:36;5.85;;;2.20;;
64225;SDS011;50545;56.064;26.178;2022-07-10T05:48:04;6.18;;;2.53;;
64225;SDS011;50545;56.064;26.178;2022-07-10T05:50:31;6.47;;;2.50;;
64225;SDS011;50545;56.064;26.178;2022-07-10T05:52:58;4.20;;;2.38;;
64225;SDS011;50545;56.064;26.178;2022-07-10T05:55:26;7.32;;;2.38;;
64225;SDS011;50545;56.064;26.178;2022-07-10T05:57:53;7.13;;;2.47;;
64225;SDS011;50545;56.064;26.178;2022-07-10T06:00:22;4.78;;;2.10;;
64225;SDS011;50545;56.064;26.178;2022-07-10T06:02:49;6.60;;;2.50;;
64225;SDS011;50545;56.064;26.178;2022-07-10T06:05:16;3.38;;;2.13;;
64225;SDS011;50545;56.064;26.178;2022-07-10T06:07:44;6.70;;;2.33;;
64225;SDS011;50545;56.064;26.178;2022-07-10T06:10:11;3.83;;;2.40;;
64225;SDS011;50545;56.064;26.178;2022-07-10T06:12:38;5.00;;;2.30;;
64225;SDS011;50545;56.064;26.178;2022-07-10T06:15:06;4.72;;;2.58;;
64225;SDS011;50545;56.064;26.178;2022-07-10T06:17:33;4.97;;;2.30;;
64225;SDS011;50545;56.064;26.178;2022-07-10T06:20:01;6.30;;;2.30;;
64225;SDS011;50545;56.064;26.178;2022-07-10T06:22:28;3.60;;;2.05;;
64225;SDS011;50545;56.064;26.178;2022-07-10T06:24:59;5.60;;;2.20;;
64225;SDS011;50545;56.064;26.178;2022-07-10T06:27:28;4.63;;;1.95;;
64225;SDS011;50545;56.064;26.178;2022-07-10T06:29:55;4.22;;;2.08;;
64225;SDS011;50545;56.064;26.178;2022-07-10T06:32:23;5.22;;;2.00;;
64225;SDS011;50545;56.064;26.178;2022-07-10T06:34:52;4.82;;;2.25;;
64225;SDS011;50545;56.064;26.178;2022-07-10T06:37:20;4.03;;;2.10;;
64225;SDS011;50545;56.064;26.178;2022-07-10T06:39:48;7.45;;;2.13;;
64225;SDS011;50545;56.064;26.178;2022-07-10T06:42:15;5.10;;;1.95;;
64225;SDS011;50545;56.064;26.178;2022-07-10T06:44:43;4.05;;;1.90;;
64225;SDS011;50545;56.064;26.178;2022-07-10T06:47:12;3.63;;;2.00;;
64225;SDS011;50545;56.064;26.178;2022-07-10T06:50:00;5.15;;;2.08;;
64225;SDS011;50545;56.064;26.178;2022-07-10T06:52:28;4.07;;;1.98;;
64225;SDS011;50545;56.064;26.178;2022-07-10T06:55:01;4.28;;;2.20;;
64225;SDS011;50545;56.064;26.178;2022-07-10T06:57:29;4.55;;;2.10;;
64225;SDS011;50545;56.064;26.178;2022-07-10T06:59:56;26.75;;;3.50;;
64225;SDS011;50545;56.064;26.178;2022-07-10T07:02:24;4.32;;;1.85;;
64225;SDS011;50545;56.064;26.178;2022-07-10T07:04:52;4.18;;;1.90;;
64225;SDS011;50545;56.064;26.178;2022-07-10T07:07:19;3.58;;;1.80;;
64225;SDS011;50545;56.064;26.178;2022-07-10T07:09:51;3.58;;;1.75;;
64225;SDS011;50545;56.064;26.178;2022-07-10T07:12:19;5.55;;;1.92;;
64225;SDS011;50545;56.064;26.178;2022-07-10T07:14:46;4.85;;;1.90;;
64225;SDS011;50545;56.064;26.178;2022-07-10T07:17:13;4.65;;;2.00;;
64225;SDS011;50545;56.064;26.178;2022-07-10T07:19:48;4.40;;;1.92;;
64225;SDS011;50545;56.064;26.178;2022-07-10T07:22:34;4.47;;;1.90;;
64225;SDS011;50545;56.064;26.178;2022-07-10T07:25:20;4.30;;;2.17;;
64225;SDS011;50545;56.064;26.178;2022-07-10T07:27:48;3.90;;;1.92;;
64225;SDS011;50545;56.064;26.178;2022-07-10T07:30:15;3.33;;;1.80;;
64225;SDS011;50545;56.064;26.178;2022-07-10T07:32:44;4.10;;;1.80;;
64225;SDS011;50545;56.064;26.178;2022-07-10T07:35:12;4.60;;;2.00;;
64225;SDS011;50545;56.064;26.178;2022-07-10T07:37:42;3.08;;;1.80;;
64225;SDS011;50545;56.064;26.178;2022-07-10T07:40:17;3.78;;;1.80;;
64225;SDS011;50545;56.064;26.178;2022-07-10T07:42:47;3.42;;;1.50;;
64225;SDS011;50545;56.064;26.178;2022-07-10T07:45:20;4.80;;;1.92;;
64225;SDS011;50545;56.064;26.178;2022-07-10T07:47:48;3.75;;;1.70;;
64225;SDS011;50545;56.064;26.178;2022-07-10T07:50:20;4.47;;;1.92;;
64225;SDS011;50545;56.064;26.178;2022-07-10T07:52:49;5.03;;;1.77;;
64225;SDS011;50545;56.064;26.178;2022-07-10T07:55:17;4.38;;;1.70;;
64225;SDS011;50545;56.064;26.178;2022-07-10T07:57:45;4.15;;;2.00;;
64225;SDS011;50545;56.064;26.178;2022-07-10T08:00:14;2.85;;;1.88;;
64225;SDS011;50545;56.064;26.178;2022-07-10T08:02:45;6.20;;;2.05;;
64225;SDS011;50545;56.064;26.178;2022-07-10T08:05:12;4.40;;;1.90;;
64225;SDS011;50545;56.064;26.178;2022-07-10T08:10:09;2.65;;;1.70;;
64225;SDS011;50545;56.064;26.178;2022-07-10T08:12:40;5.55;;;1.90;;
64225;SDS011;50545;56.064;26.178;2022-07-10T08:15:08;2.75;;;1.70;;
64225;SDS011;50545;56.064;26.178;2022-07-10T08:17:37;4.45;;;1.90;;
64225;SDS011;50545;56.064;26.178;2022-07-10T08:20:06;2.67;;;1.73;;
64225;SDS011;50545;56.064;26.178;2022-07-10T08:22:35;4.28;;;1.80;;
64225;SDS011;50545;56.064;26.178;2022-07-10T08:25:02;2.38;;;1.70;;
64225;SDS011;50545;56.064;26.178;2022-07-10T08:27:30;3.22;;;1.80;;
64225;SDS011;50545;56.064;26.178;2022-07-10T08:29:57;2.70;;;1.73;;
64225;SDS011;50545;56.064;26.178;2022-07-10T08:32:25;3.03;;;1.67;;
64225;SDS011;50545;56.064;26.178;2022-07-10T08:34:53;3.67;;;1.63;;
64225;SDS011;50545;56.064;26.178;2022-07-10T08:37:21;4.55;;;1.63;;
64225;SDS011;50545;56.064;26.178;2022-07-10T08:39:49;2.92;;;1.83;;
64225;SDS011;50545;56.064;26.178;2022-07-10T08:42:16;3.53;;;1.88;;
64225;SDS011;50545;56.064;26.178;2022-07-10T08:44:45;6.07;;;1.83;;
64225;SDS011;50545;56.064;26.178;2022-07-10T08:47:13;2.38;;;1.45;;
64225;SDS011;50545;56.064;26.178;2022-07-10T08:49:45;4.63;;;1.73;;
64225;SDS011;50545;56.064;26.178;2022-07-10T08:52:26;2.70;;;1.33;;
64225;SDS011;50545;56.064;26.178;2022-07-10T08:55:25;1.80;;;1.30;;
64225;SDS011;50545;56.064;26.178;2022-07-10T08:57:53;2.65;;;1.48;;
64225;SDS011;50545;56.064;26.178;2022-07-10T09:00:24;1.95;;;1.50;;
64225;SDS011;50545;56.064;26.178;2022-07-10T09:02:53;2.15;;;1.73;;
64225;SDS011;50545;56.064;26.178;2022-07-10T09:05:21;5.38;;;1.70;;
64225;SDS011;50545;56.064;26.178;2022-07-10T09:07:50;5.05;;;1.60;;
64225;SDS011;50545;56.064;26.178;2022-07-10T09:10:18;3.70;;;1.90;;
64225;SDS011;50545;56.064;26.178;2022-07-10T09:15:21;5.85;;;1.95;;
64225;SDS011;50545;56.064;26.178;2022-07-10T09:17:59;3.55;;;1.60;;
64225;SDS011;50545;56.064;26.178;2022-07-10T09:20:29;4.53;;;1.83;;
64225;SDS011;50545;56.064;26.178;2022-07-10T09:23:14;3.78;;;1.70;;
64225;SDS011;50545;56.064;26.178;2022-07-10T09:25:46;2.83;;;1.45;;
64225;SDS011;50545;56.064;26.178;2022-07-10T09:28:16;2.80;;;1.70;;
64225;SDS011;50545;56.064;26.178;2022-07-10T09:30:45;4.38;;;1.63;;
64225;SDS011;50545;56.064;26.178;2022-07-10T09:33:25;3.15;;;1.40;;
64225;SDS011;50545;56.064;26.178;2022-07-10T09:35:56;4.10;;;1.70;;
64225;SDS011;50545;56.064;26.178;2022-07-10T09:43:49;3.05;;;1.70;;
64225;SDS011;50545;56.064;26.178;2022-07-10T09:46:36;4.75;;;1.73;;
64225;SDS011;50545;56.064;26.178;2022-07-10T09:49:08;3.53;;;1.70;;
64225;SDS011;50545;56.064;26.178;2022-07-10T09:54:14;3.75;;;1.73;;
64225;SDS011;50545;56.064;26.178;2022-07-10T09:56:43;2.20;;;1.20;;
64225;SDS011;50545;56.064;26.178;2022-07-10T09:59:15;2.28;;;1.30;;
64225;SDS011;50545;56.064;26.178;2022-07-10T10:01:47;2.92;;;1.45;;
64225;SDS011;50545;56.064;26.178;2022-07-10T10:04:19;3.05;;;1.60;;
64225;SDS011;50545;56.064;26.178;2022-07-10T10:06:51;2.50;;;1.42;;
64225;SDS011;50545;56.064;26.178;2022-07-10T10:12:07;4.88;;;1.83;;
64225;SDS011;50545;56.064;26.178;2022-07-10T10:14:42;2.92;;;1.42;;
64225;SDS011;50545;56.064;26.178;2022-07-10T10:17:10;1.75;;;1.20;;
64225;SDS011;50545;56.064;26.178;2022-07-10T10:19:39;1.98;;;1.35;;
64225;SDS011;50545;56.064;26.178;2022-07-10T10:22:25;1.80;;;1.30;;
64225;SDS011;50545;56.064;26.178;2022-07-10T10:24:54;4.65;;;1.50;;
64225;SDS011;50545;56.064;26.178;2022-07-10T10:27:21;2.47;;;1.38;;
64225;SDS011;50545;56.064;26.178;2022-07-10T10:29:51;3.38;;;1.48;;
64225;SDS011;50545;56.064;26.178;2022-07-10T10:32:19;3.53;;;1.50;;
64225;SDS011;50545;56.064;26.178;2022-07-10T10:34:47;3.55;;;1.35;;
64225;SDS011;50545;56.064;26.178;2022-07-10T10:37:35;4.95;;;1.30;;
64225;SDS011;50545;56.064;26.178;2022-07-10T10:40:09;2.28;;;1.38;;
64225;SDS011;50545;56.064;26.178;2022-07-10T10:42:43;3.40;;;1.52;;
64225;SDS011;50545;56.064;26.178;2022-07-10T10:45:44;2.42;;;1.48;;
64225;SDS011;50545;56.064;26.178;2022-07-10T10:48:07;4.55;;;1.40;;
64225;SDS011;50545;56.064;26.178;2022-07-10T10:50:56;3.00;;;1.48;;
64225;SDS011;50545;56.064;26.178;2022-07-10T10:53:25;2.80;;;1.27;;
64225;SDS011;50545;56.064;26.178;2022-07-10T10:58:27;2.10;;;1.27;;
64225;SDS011;50545;56.064;26.178;2022-07-10T11:01:04;2.72;;;1.40;;
64225;SDS011;50545;56.064;26.178;2022-07-10T11:06:40;1.73;;;1.25;;
64225;SDS011;50545;56.064;26.178;2022-07-10T11:09:29;1.67;;;1.40;;
64225;SDS011;50545;56.064;26.178;2022-07-10T11:12:00;2.55;;;1.48;;
64225;SDS011;50545;56.064;26.178;2022-07-10T11:14:29;2.15;;;1.20;;
64225;SDS011;50545;56.064;26.178;2022-07-10T11:16:58;3.00;;;1.25;;
64225;SDS011;50545;56.064;26.178;2022-07-10T11:19:26;2.63;;;1.48;;
64225;SDS011;50545;56.064;26.178;2022-07-10T11:30:18;3.90;;;1.30;;
64225;SDS011;50545;56.064;26.178;2022-07-10T11:32:45;3.20;;;1.17;;
64225;SDS011;50545;56.064;26.178;2022-07-10T11:35:14;3.13;;;1.50;;
64225;SDS011;50545;56.064;26.178;2022-07-10T11:37:55;3.30;;;1.58;;
64225;SDS011;50545;56.064;26.178;2022-07-10T11:40:22;3.60;;;1.50;;
64225;SDS011;50545;56.064;26.178;2022-07-10T11:42:53;4.30;;;1.20;;
64225;SDS011;50545;56.064;26.178;2022-07-10T11:45:28;6.05;;;1.60;;
64225;SDS011;50545;56.064;26.178;2022-07-10T11:47:57;3.65;;;1.48;;
64225;SDS011;50545;56.064;26.178;2022-07-10T11:50:26;3.25;;;1.50;;
64225;SDS011;50545;56.064;26.178;2022-07-10T11:52:54;3.03;;;1.50;;
64225;SDS011;50545;56.064;26.178;2022-07-10T11:55:22;3.47;;;1.60;;
64225;SDS011;50545;56.064;26.178;2022-07-10T11:57:50;2.10;;;1.45;;
64225;SDS011;50545;56.064;26.178;2022-07-10T12:00:25;3.33;;;1.40;;
64225;SDS011;50545;56.064;26.178;2022-07-10T12:02:55;1.98;;;1.30;;
64225;SDS011;50545;56.064;26.178;2022-07-10T12:05:29;4.75;;;1.55;;
64225;SDS011;50545;56.064;26.178;2022-07-10T12:08:01;4.68;;;1.90;;
64225;SDS011;50545;56.064;26.178;2022-07-10T12:10:30;4.50;;;1.80;;
64225;SDS011;50545;56.064;26.178;2022-07-10T12:13:06;3.20;;;1.70;;
64225;SDS011;50545;56.064;26.178;2022-07-10T12:15:35;4.35;;;1.65;;
64225;SDS011;50545;56.064;26.178;2022-07-10T12:18:05;4.50;;;1.80;;
64225;SDS011;50545;56.064;26.178;2022-07-10T12:20:33;5.13;;;1.77;;
64225;SDS011;50545;56.064;26.178;2022-07-10T12:23:01;6.55;;;1.88;;
64225;SDS011;50545;56.064;26.178;2022-07-10T12:25:31;2.30;;;2.00;;
64225;SDS011;50545;56.064;26.178;2022-07-10T12:27:58;5.65;;;1.95;;
64225;SDS011;50545;56.064;26.178;2022-07-10T12:33:25;4.10;;;1.70;;
64225;SDS011;50545;56.064;26.178;2022-07-10T12:35:56;2.03;;;1.40;;
64225;SDS011;50545;56.064;26.178;2022-07-10T12:38:25;2.03;;;1.45;;
64225;SDS011;50545;56.064;26.178;2022-07-10T12:41:12;2.22;;;1.60;;
64225;SDS011;50545;56.064;26.178;2022-07-10T12:43:40;3.45;;;1.80;;
64225;SDS011;50545;56.064;26.178;2022-07-10T12:46:24;2.83;;;1.58;;
64225;SDS011;50545;56.064;26.178;2022-07-10T12:49:07;5.10;;;1.95;;
64225;SDS011;50545;56.064;26.178;2022-07-10T12:51:48;3.25;;;1.75;;
64225;SDS011;50545;56.064;26.178;2022-07-10T12:54:36;3.50;;;1.67;;
64225;SDS011;50545;56.064;26.178;2022-07-10T12:57:05;3.10;;;1.70;;
64225;SDS011;50545;56.064;26.178;2022-07-10T12:59:33;1.25;;;1.15;;
64225;SDS011;50545;56.064;26.178;2022-07-10T13:02:15;2.50;;;1.50;;
64225;SDS011;50545;56.064;26.178;2022-07-10T13:04:59;3.33;;;1.75;;
64225;SDS011;50545;56.064;26.178;2022-07-10T13:07:33;4.00;;;1.80;;
64225;SDS011;50545;56.064;26.178;2022-07-10T13:10:02;3.40;;;1.75;;
64225;SDS011;50545;56.064;26.178;2022-07-10T13:12:32;4.90;;;1.40;;
64225;SDS011;50545;56.064;26.178;2022-07-10T13:15:00;3.25;;;1.50;;
64225;SDS011;50545;56.064;26.178;2022-07-10T13:17:29;3.50;;;1.73;;
64225;SDS011;50545;56.064;26.178;2022-07-10T13:19:56;1.98;;;1.27;;
64225;SDS011;50545;56.064;26.178;2022-07-10T13:22:24;3.35;;;1.60;;
64225;SDS011;50545;56.064;26.178;2022-07-10T13:24:51;2.38;;;1.38;;
64225;SDS011;50545;56.064;26.178;2022-07-10T13:27:18;2.30;;;1.30;;
64225;SDS011;50545;56.064;26.178;2022-07-10T13:29:46;2.00;;;1.20;;
64225;SDS011;50545;56.064;26.178;2022-07-10T13:32:14;4.93;;;1.48;;
64225;SDS011;50545;56.064;26.178;2022-07-10T13:34:42;2.38;;;1.33;;
64225;SDS011;50545;56.064;26.178;2022-07-10T13:37:09;2.05;;;1.30;;
64225;SDS011;50545;56.064;26.178;2022-07-10T13:39:40;3.15;;;1.42;;
64225;SDS011;50545;56.064;26.178;2022-07-10T13:42:07;1.95;;;1.40;;
64225;SDS011;50545;56.064;26.178;2022-07-10T13:44:34;4.18;;;1.52;;
64225;SDS011;50545;56.064;26.178;2022-07-10T13:47:02;2.80;;;1.25;;
64225;SDS011;50545;56.064;26.178;2022-07-10T13:49:30;2.20;;;1.40;;
64225;SDS011;50545;56.064;26.178;2022-07-10T13:51:57;2.63;;;1.88;;
64225;SDS011;50545;56.064;26.178;2022-07-10T13:54:25;3.28;;;1.35;;
64225;SDS011;50545;56.064;26.178;2022-07-10T13:56:52;1.92;;;1.23;;
64225;SDS011;50545;56.064;26.178;2022-07-10T13:59:20;4.47;;;1.50;;
64225;SDS011;50545;56.064;26.178;2022-07-10T14:01:47;3.17;;;1.48;;
64225;SDS011;50545;56.064;26.178;2022-07-10T14:04:14;2.17;;;1.30;;
64225;SDS011;50545;56.064;26.178;2022-07-10T14:06:42;1.88;;;1.20;;
64225;SDS011;50545;56.064;26.178;2022-07-10T14:09:09;2.83;;;1.45;;
64225;SDS011;50545;56.064;26.178;2022-07-10T14:11:37;1.92;;;1.20;;
64225;SDS011;50545;56.064;26.178;2022-07-10T14:14:04;2.00;;;1.38;;
64225;SDS011;50545;56.064;26.178;2022-07-10T14:16:32;2.45;;;1.20;;
64225;SDS011;50545;56.064;26.178;2022-07-10T14:18:59;2.50;;;1.50;;
64225;SDS011;50545;56.064;26.178;2022-07-10T14:21:26;3.20;;;1.40;;
64225;SDS011;50545;56.064;26.178;2022-07-10T14:23:54;2.90;;;1.35;;
64225;SDS011;50545;56.064;26.178;2022-07-10T14:26:22;1.98;;;1.38;;
64225;SDS011;50545;56.064;26.178;2022-07-10T14:28:50;2.35;;;1.13;;
64225;SDS011;50545;56.064;26.178;2022-07-10T14:31:18;2.17;;;1.48;;
64225;SDS011;50545;56.064;26.178;2022-07-10T14:33:45;1.58;;;1.20;;
64225;SDS011;50545;56.064;26.178;2022-07-10T14:36:13;1.50;;;1.15;;
64225;SDS011;50545;56.064;26.178;2022-07-10T14:38:40;3.88;;;1.30;;
64225;SDS011;50545;56.064;26.178;2022-07-10T14:41:08;2.47;;;1.50;;
64225;SDS011;50545;56.064;26.178;2022-07-10T14:43:35;2.28;;;1.20;;
64225;SDS011;50545;56.064;26.178;2022-07-10T14:46:03;1.98;;;1.27;;
64225;SDS011;50545;56.064;26.178;2022-07-10T14:48:32;2.92;;;1.15;;
64225;SDS011;50545;56.064;26.178;2022-07-10T14:51:00;2.42;;;1.20;;
64225;SDS011;50545;56.064;26.178;2022-07-10T14:53:28;3.53;;;1.50;;
64225;SDS011;50545;56.064;26.178;2022-07-10T14:55:56;2.47;;;1.35;;
64225;SDS011;50545;56.064;26.178;2022-07-10T14:58:24;3.65;;;1.40;;
64225;SDS011;50545;56.064;26.178;2022-07-10T15:00:51;3.15;;;1.58;;
64225;SDS011;50545;56.064;26.178;2022-07-10T15:03:20;2.65;;;0.85;;
64225;SDS011;50545;56.064;26.178;2022-07-10T15:05:47;3.13;;;1.10;;
64225;SDS011;50545;56.064;26.178;2022-07-10T15:08:19;3.10;;;1.38;;
64225;SDS011;50545;56.064;26.178;2022-07-10T15:10:47;2.67;;;1.25;;
64225;SDS011;50545;56.064;26.178;2022-07-10T15:13:14;1.55;;;1.05;;
64225;SDS011;50545;56.064;26.178;2022-07-10T15:15:42;2.13;;;1.48;;
64225;SDS011;50545;56.064;26.178;2022-07-10T15:18:09;1.60;;;1.10;;
64225;SDS011;50545;56.064;26.178;2022-07-10T15:20:37;1.50;;;1.02;;
64225;SDS011;50545;56.064;26.178;2022-07-10T15:23:04;1.63;;;1.40;;